createdAt,value
2018-06-08T00:02:15.044Z,99.90
2018-06-08T00:04:44.013Z,99.90
2018-06-08T00:07:12.503Z,99.90
2018-06-08T00:09:40.984Z,99.90
2018-06-08T00:12:09.472Z,99.90
2018-06-08T00:14:37.948Z,99.90
2018-06-08T00:17:06.438Z,99.90
2018-06-08T00:19:34.900Z,99.90
2018-06-08T00:22:03.423Z,99.90
2018-06-08T00:24:31.912Z,99.90
2018-06-08T00:27:00.392Z,99.90
2018-06-08T00:29:28.876Z,99.90
2018-06-08T00:31:57.343Z,99.90
2018-06-08T00:34:25.799Z,99.90
2018-06-08T00:36:54.284Z,99.90
2018-06-08T00:39:22.739Z,99.90
2018-06-08T00:41:51.228Z,99.90
2018-06-08T00:44:19.705Z,99.90
2018-06-08T00:46:48.183Z,99.90
2018-06-08T00:49:16.640Z,99.90
2018-06-08T00:51:45.141Z,99.90
2018-06-08T00:54:13.600Z,99.90
2018-06-08T00:56:53.387Z,99.90
2018-06-08T00:59:21.860Z,99.90
2018-06-08T01:01:50.348Z,99.90
2018-06-08T01:04:18.808Z,99.90
2018-06-08T01:09:15.419Z,99.90
2018-06-08T01:11:43.903Z,99.90
2018-06-08T01:14:12.387Z,99.90
2018-06-08T01:16:40.843Z,99.90
2018-06-08T01:19:09.332Z,99.90
2018-06-08T01:21:37.795Z,99.90
2018-06-08T01:24:06.487Z,99.90
2018-06-08T01:26:34.948Z,99.90
2018-06-08T01:29:03.412Z,99.90
2018-06-08T01:31:31.904Z,99.90
2018-06-08T01:34:00.365Z,99.90
2018-06-08T01:36:28.853Z,99.90
2018-06-08T01:41:25.464Z,99.90
2018-06-08T01:43:54.772Z,99.90
2018-06-08T01:46:23.263Z,99.90
2018-06-08T01:48:51.792Z,99.90
2018-06-08T01:51:20.248Z,99.90
2018-06-08T01:53:48.731Z,99.90
2018-06-08T01:58:45.347Z,99.90
2018-06-08T02:01:13.815Z,99.90
2018-06-08T02:03:42.308Z,99.90
2018-06-08T02:06:10.776Z,99.90
2018-06-08T02:08:39.323Z,99.90
2018-06-08T02:16:04.135Z,99.90
2018-06-08T02:18:32.596Z,99.90
2018-06-08T02:21:01.096Z,99.90
2018-06-08T02:28:25.860Z,99.90
2018-06-08T02:30:54.352Z,99.90
2018-06-08T02:33:22.817Z,99.90
2018-06-08T02:35:51.305Z,99.90
2018-06-08T02:38:19.766Z,99.90
2018-06-08T02:43:16.404Z,99.90
2018-06-08T02:45:44.883Z,99.90
2018-06-08T02:48:13.365Z,99.90
2018-06-08T02:50:41.836Z,99.90
2018-06-08T02:53:10.328Z,99.90
2018-06-08T02:55:38.821Z,99.90
2018-06-08T02:58:07.308Z,99.90
2018-06-08T03:03:04.081Z,99.90
2018-06-08T03:05:32.553Z,99.90
2018-06-08T03:08:01.020Z,99.90
2018-06-08T03:15:25.832Z,99.90
2018-06-08T03:17:54.303Z,99.90
2018-06-08T03:20:22.820Z,99.90
2018-06-08T03:25:19.468Z,99.90
2018-06-08T03:30:16.080Z,99.90
2018-06-08T03:32:44.544Z,99.90
2018-06-08T03:35:13.043Z,99.90
2018-06-08T03:37:41.508Z,99.90
2018-06-08T03:40:09.978Z,99.90
2018-06-08T03:42:38.476Z,99.90
2018-06-08T03:45:07.072Z,99.90
2018-06-08T03:47:35.559Z,99.90
2018-06-08T03:50:04.059Z,99.90
2018-06-08T03:52:32.548Z,99.90
2018-06-08T03:55:01.002Z,99.90
2018-06-08T03:57:29.526Z,99.90
2018-06-08T03:59:57.951Z,99.90
2018-06-08T04:02:26.418Z,99.90
2018-06-08T04:04:54.897Z,99.90
2018-06-08T04:07:23.364Z,99.90
2018-06-08T04:09:51.859Z,99.90
2018-06-08T04:12:20.323Z,99.90
2018-06-08T04:14:48.816Z,99.90
2018-06-08T04:17:17.320Z,99.90
2018-06-08T04:19:45.808Z,99.90
2018-06-08T04:22:14.280Z,99.90
2018-06-08T04:24:42.763Z,99.90
2018-06-08T04:27:11.228Z,99.90
2018-06-08T04:29:39.685Z,99.90
2018-06-08T04:32:08.156Z,99.90
2018-06-08T04:37:04.812Z,99.90
2018-06-08T04:39:33.267Z,99.90
2018-06-08T04:42:01.747Z,99.90
2018-06-08T04:44:30.196Z,99.90
2018-06-08T04:46:59.168Z,99.90
2018-06-08T04:49:27.631Z,99.90
2018-06-08T04:54:24.247Z,99.90
2018-06-08T04:56:52.727Z,99.90
2018-06-08T04:59:21.681Z,99.90
2018-06-08T05:01:50.172Z,99.90
2018-06-08T05:04:18.666Z,99.90
2018-06-08T05:06:47.124Z,99.90
2018-06-08T05:09:15.607Z,99.90
2018-06-08T05:11:44.055Z,99.90
2018-06-08T05:14:12.516Z,99.90
2018-06-08T05:16:41.000Z,99.90
2018-06-08T05:19:09.487Z,99.90
2018-06-08T05:21:37.967Z,99.90
2018-06-08T05:24:06.438Z,99.90
2018-06-08T05:26:34.928Z,99.90
2018-06-08T05:29:03.588Z,99.90
2018-06-08T05:31:32.072Z,99.90
2018-06-08T05:34:00.533Z,99.90
2018-06-08T05:36:29.016Z,99.90
2018-06-08T05:38:57.508Z,99.90
2018-06-08T05:41:26.476Z,99.90
2018-06-08T05:43:54.947Z,99.90
2018-06-08T05:48:51.574Z,99.90
2018-06-08T05:51:20.045Z,99.90
2018-06-08T05:53:48.561Z,99.90
2018-06-08T05:58:45.184Z,99.90
2018-06-08T06:01:13.685Z,99.90
2018-06-08T06:06:10.355Z,99.90
2018-06-08T06:11:06.987Z,99.90
2018-06-08T06:16:03.643Z,99.90
2018-06-08T06:18:32.112Z,99.90
2018-06-08T06:21:00.703Z,99.90
2018-06-08T06:23:29.127Z,99.90
2018-06-08T06:25:57.607Z,99.90
2018-06-08T06:28:26.075Z,99.90
2018-06-08T06:30:54.559Z,99.90
2018-06-08T06:33:23.023Z,99.90
2018-06-08T06:38:20.459Z,99.90
2018-06-08T06:40:48.932Z,99.90
2018-06-08T06:43:17.411Z,99.90
2018-06-08T06:45:45.880Z,99.90
2018-06-08T06:48:14.360Z,99.90
2018-06-08T06:50:42.900Z,99.90
2018-06-08T06:53:11.407Z,99.90
2018-06-08T06:55:39.871Z,99.90
2018-06-08T06:58:08.335Z,99.90
2018-06-08T07:00:36.828Z,99.90
2018-06-08T07:05:33.460Z,99.90
2018-06-08T07:08:01.924Z,99.90
2018-06-08T07:10:30.418Z,99.90
2018-06-08T07:12:58.879Z,99.90
2018-06-08T07:15:27.352Z,99.90
2018-06-08T07:17:55.837Z,99.90
2018-06-08T07:20:24.291Z,99.90
2018-06-08T07:22:52.776Z,99.90
2018-06-08T07:25:21.227Z,99.90
2018-06-08T07:27:49.708Z,99.90
2018-06-08T07:30:18.222Z,99.90
2018-06-08T07:32:46.705Z,99.90
2018-06-08T07:35:15.197Z,99.90
2018-06-08T07:37:43.673Z,99.90
2018-06-08T07:40:12.199Z,99.90
2018-06-08T07:42:40.632Z,99.90
2018-06-08T07:45:09.159Z,99.90
2018-06-08T07:47:37.615Z,99.90
2018-06-08T07:50:06.119Z,99.90
2018-06-08T07:52:34.580Z,99.90
2018-06-08T07:55:03.068Z,99.90
2018-06-08T07:57:31.536Z,99.70
2018-06-08T08:00:00.033Z,99.70
2018-06-08T08:02:28.512Z,99.20
2018-06-08T08:04:56.984Z,99.90
2018-06-08T08:07:25.475Z,99.70
2018-06-08T08:09:53.932Z,99.00
2018-06-08T08:12:22.420Z,98.40
2018-06-08T08:14:50.875Z,98.30
2018-06-08T08:17:19.365Z,98.40
2018-06-08T08:19:47.835Z,98.70
2018-06-08T08:24:44.499Z,98.90
2018-06-08T08:27:12.965Z,99.30
2018-06-08T08:32:09.573Z,99.20
2018-06-08T08:34:38.076Z,99.20
2018-06-08T08:37:06.588Z,98.90
2018-06-08T08:42:03.244Z,98.40
2018-06-08T08:46:59.859Z,99.20
2018-06-08T08:49:28.323Z,99.20
2018-06-08T08:51:56.875Z,98.70
2018-06-08T08:54:25.344Z,98.70
2018-06-08T08:59:21.959Z,99.00
2018-06-08T09:01:50.432Z,98.20
2018-06-08T09:04:18.888Z,98.90
2018-06-08T09:06:47.461Z,97.20
2018-06-08T09:09:15.907Z,97.60
2018-06-08T09:16:40.724Z,95.50
2018-06-08T09:19:09.184Z,94.20
2018-06-08T09:21:37.652Z,95.00
2018-06-08T09:24:06.143Z,95.80
2018-06-08T09:26:34.617Z,94.80
2018-06-08T09:29:03.155Z,94.80
2018-06-08T09:31:31.616Z,93.90
2018-06-08T09:34:00.104Z,93.20
2018-06-08T09:36:28.600Z,92.90
2018-06-08T09:41:25.208Z,92.60
2018-06-08T09:43:53.690Z,92.60
2018-06-08T09:46:22.186Z,92.70
2018-06-08T09:48:50.616Z,92.20
2018-06-08T09:51:19.095Z,92.30
2018-06-08T09:53:47.552Z,92.50
2018-06-08T10:01:12.356Z,92.10
2018-06-08T10:03:40.816Z,92.60
2018-06-08T10:06:09.295Z,92.90
2018-06-08T10:08:37.760Z,92.60
2018-06-08T10:11:06.251Z,92.90
2018-06-08T10:13:34.707Z,91.80
2018-06-08T10:16:03.192Z,91.70
2018-06-08T10:18:31.672Z,91.80
2018-06-08T10:21:00.128Z,90.50
2018-06-08T10:23:28.615Z,90.40
2018-06-08T10:28:25.244Z,87.40
2018-06-08T10:30:53.697Z,83.80
2018-06-08T10:33:22.184Z,81.70
2018-06-08T10:35:50.652Z,80.40
2018-06-08T10:38:19.116Z,79.60
2018-06-08T10:40:47.611Z,79.70
2018-06-08T10:43:16.068Z,76.90
2018-06-08T10:45:44.553Z,75.40
2018-06-08T10:48:13.012Z,72.60
2018-06-08T10:50:41.496Z,71.80
2018-06-08T10:58:06.240Z,70.40
2018-06-08T11:00:34.701Z,67.70
2018-06-08T11:03:03.179Z,68.30
2018-06-08T11:05:31.632Z,68.20
2018-06-08T11:08:00.107Z,68.40
2018-06-08T11:10:28.582Z,66.40
2018-06-08T11:12:57.071Z,64.10
2018-06-08T11:15:25.528Z,66.90
2018-06-08T11:17:54.004Z,64.50
2018-06-08T11:20:22.469Z,62.70
2018-06-08T11:22:50.959Z,61.50
2018-06-08T11:25:19.412Z,61.50
2018-06-08T11:27:47.915Z,61.10
2018-06-08T11:30:16.372Z,59.70
2018-06-08T11:32:44.867Z,59.80
2018-06-08T11:35:13.332Z,59.60
2018-06-08T11:37:41.807Z,57.50
2018-06-08T11:40:10.266Z,57.60
2018-06-08T11:42:38.731Z,56.90
2018-06-08T11:45:07.211Z,55.40
2018-06-08T11:47:35.664Z,54.60
2018-06-08T11:50:04.206Z,54.80
2018-06-08T11:52:32.652Z,55.90
2018-06-08T11:55:01.131Z,55.20
2018-06-08T11:57:29.588Z,55.70
2018-06-08T11:59:58.082Z,53.90
2018-06-08T12:02:26.539Z,52.70
2018-06-08T12:07:23.141Z,51.90
2018-06-08T12:09:51.600Z,51.20
2018-06-08T12:12:20.076Z,51.40
2018-06-08T12:14:48.524Z,50.60
2018-06-08T12:17:17.003Z,48.70
2018-06-08T12:19:45.458Z,48.70
2018-06-08T12:22:13.932Z,48.90
2018-06-08T12:24:42.389Z,48.80
2018-06-08T12:27:10.849Z,50.50
2018-06-08T12:32:07.468Z,45.90
2018-06-08T12:34:35.951Z,42.10
2018-06-08T12:37:04.405Z,39.80
2018-06-08T12:39:32.892Z,36.70
2018-06-08T12:42:01.348Z,35.70
2018-06-08T12:44:29.796Z,33.80
2018-06-08T12:49:26.412Z,30.20
2018-06-08T12:51:54.891Z,28.80
2018-06-08T12:54:23.350Z,28.60
2018-06-08T12:56:51.832Z,28.00
2018-06-08T12:59:20.288Z,28.00
2018-06-08T13:01:48.779Z,26.60
2018-06-08T13:04:17.247Z,26.30
2018-06-08T13:09:13.892Z,26.80
2018-06-08T13:11:42.408Z,28.50
2018-06-08T13:14:10.900Z,30.30
2018-06-08T13:16:39.383Z,30.40
2018-06-08T13:19:07.884Z,30.60
2018-06-08T13:21:36.348Z,32.40
2018-06-08T13:24:04.827Z,30.70
2018-06-08T13:26:33.324Z,30.00
2018-06-08T13:29:01.799Z,29.30
2018-06-08T13:31:30.288Z,28.30
2018-06-08T13:33:58.748Z,28.10
2018-06-08T13:36:27.256Z,27.50
2018-06-08T13:38:55.732Z,26.60
2018-06-08T13:41:24.655Z,27.10
2018-06-08T13:43:53.168Z,28.20
2018-06-08T13:46:56.924Z,29.50
2018-06-08T13:49:25.408Z,28.40
2018-06-08T13:51:53.913Z,29.50
2018-06-08T13:54:22.380Z,30.70
2018-06-08T13:56:50.860Z,31.90
2018-06-08T13:59:19.344Z,31.40
2018-06-08T14:01:47.812Z,31.20
2018-06-08T14:04:16.328Z,32.10
2018-06-08T14:09:13.045Z,33.10
2018-06-08T14:11:41.503Z,33.30
2018-06-08T14:14:09.972Z,32.90
2018-06-08T14:16:38.522Z,33.70
2018-06-08T14:19:07.012Z,32.80
2018-06-08T14:21:35.524Z,32.80
2018-06-08T14:24:04.076Z,32.70
2018-06-08T14:26:32.552Z,33.40
2018-06-08T14:31:29.236Z,34.10
2018-06-08T14:33:57.727Z,34.00
2018-06-08T14:36:26.241Z,33.80
2018-06-08T14:38:54.771Z,34.60
2018-06-08T14:43:51.444Z,34.60
2018-06-08T14:46:19.924Z,34.30
2018-06-08T14:48:48.463Z,35.40
2018-06-08T14:51:16.984Z,35.70
2018-06-08T14:53:45.516Z,36.00
2018-06-08T14:56:14.028Z,36.20
2018-06-08T15:01:10.692Z,36.20
2018-06-08T15:03:39.184Z,36.00
2018-06-08T15:06:07.702Z,35.80
2018-06-08T15:08:36.200Z,35.40
2018-06-08T15:11:04.787Z,35.80
2018-06-08T15:13:33.687Z,36.30
2018-06-08T15:16:02.236Z,36.50
2018-06-08T15:18:30.753Z,35.90
2018-06-08T15:20:59.277Z,36.00
2018-06-08T15:23:27.820Z,36.60
2018-06-08T15:25:56.304Z,36.20
2018-06-08T15:28:24.843Z,36.30
2018-06-08T15:30:53.308Z,36.90
2018-06-08T15:33:21.841Z,36.50
2018-06-08T15:35:50.339Z,36.20
2018-06-08T15:38:18.859Z,37.10
2018-06-08T15:40:47.353Z,37.00
2018-06-08T15:43:15.851Z,38.00
2018-06-08T15:45:44.340Z,38.90
2018-06-08T15:48:12.911Z,39.00
2018-06-08T15:50:41.420Z,39.50
2018-06-08T15:53:09.966Z,40.10
2018-06-08T15:55:38.464Z,40.30
2018-06-08T15:58:06.981Z,39.00
2018-06-08T16:03:03.674Z,39.20
2018-06-08T16:05:32.208Z,40.50
2018-06-08T16:08:00.720Z,40.40
2018-06-08T16:10:29.268Z,40.60
2018-06-08T16:12:57.768Z,40.00
2018-06-08T16:17:54.453Z,38.80
2018-06-08T16:20:22.963Z,40.10
2018-06-08T16:22:51.491Z,40.60
2018-06-08T16:27:48.180Z,39.60
2018-06-08T16:30:16.668Z,39.90
2018-06-08T16:32:45.186Z,40.30
2018-06-08T16:35:13.692Z,40.30
2018-06-08T16:37:42.252Z,41.20
2018-06-08T16:40:10.776Z,41.30
2018-06-08T16:42:39.552Z,41.60
2018-06-08T16:47:36.281Z,41.50
2018-06-08T16:50:04.859Z,42.10
2018-06-08T16:52:33.385Z,42.70
2018-06-08T16:55:01.919Z,42.80
2018-06-08T16:57:30.496Z,42.70
2018-06-08T16:59:59.018Z,43.30
2018-06-08T17:02:27.532Z,43.80
2018-06-08T17:04:56.048Z,44.10
2018-06-08T17:07:24.557Z,42.90
2018-06-08T17:12:21.380Z,43.20
2018-06-08T17:14:49.900Z,43.10
2018-06-08T17:17:18.440Z,43.00
2018-06-08T17:19:46.953Z,42.00
2018-06-08T17:22:15.491Z,41.90
2018-06-08T17:24:44.033Z,42.70
2018-06-08T17:27:12.552Z,42.60
2018-06-08T17:29:41.040Z,43.50
2018-06-08T17:32:09.580Z,44.30
2018-06-08T17:39:34.451Z,44.40
2018-06-08T17:42:02.989Z,44.30
2018-06-08T17:46:59.734Z,44.80
2018-06-08T17:49:28.273Z,45.40
2018-06-08T17:51:56.785Z,45.50
2018-06-08T17:54:25.320Z,45.00
2018-06-08T17:56:53.836Z,45.10
2018-06-08T17:59:22.625Z,45.00
2018-06-08T18:01:51.141Z,44.90
2018-06-08T18:04:19.654Z,45.00
2018-06-08T18:06:48.178Z,44.80
2018-06-08T18:09:16.685Z,44.50
2018-06-08T18:11:45.216Z,44.70
2018-06-08T18:14:13.763Z,45.00
2018-06-08T18:19:10.485Z,45.60
2018-06-08T18:21:39.005Z,45.90
2018-06-08T18:26:35.728Z,46.40
2018-06-08T18:29:04.320Z,47.00
2018-06-08T18:31:32.833Z,47.50
2018-06-08T18:34:01.612Z,48.00
2018-06-08T18:38:58.239Z,48.40
2018-06-08T18:41:26.704Z,48.90
2018-06-08T18:43:55.216Z,49.20
2018-06-08T18:46:23.693Z,49.70
2018-06-08T18:48:52.167Z,49.80
2018-06-08T18:51:20.766Z,50.20
2018-06-08T18:53:49.284Z,51.10
2018-06-08T18:56:17.802Z,51.80
2018-06-08T18:58:46.272Z,52.50
2018-06-08T19:01:14.800Z,52.90
2018-06-08T19:03:43.268Z,53.50
2018-06-08T19:06:11.759Z,53.80
2018-06-08T19:08:40.544Z,54.20
2018-06-08T19:11:09.070Z,54.60
2018-06-08T19:13:37.597Z,54.70
2018-06-08T19:16:06.212Z,55.00
2018-06-08T19:23:31.056Z,56.50
2018-06-08T19:25:59.532Z,56.40
2018-06-08T19:28:28.018Z,56.60
2018-06-08T19:30:56.472Z,56.90
2018-06-08T19:33:24.964Z,57.40
2018-06-08T19:35:53.448Z,57.80
2018-06-08T19:40:50.072Z,58.50
2018-06-08T19:43:18.543Z,59.20
2018-06-08T19:45:47.055Z,58.90
2018-06-08T19:48:15.533Z,58.90
2018-06-08T19:50:44.020Z,59.60
2018-06-08T19:53:12.484Z,60.10
2018-06-08T19:55:40.991Z,60.40
2018-06-08T20:00:37.659Z,60.70
2018-06-08T20:03:06.191Z,61.50
2018-06-08T20:05:34.683Z,61.90
2018-06-08T20:08:03.525Z,62.90
2018-06-08T20:10:32.012Z,63.40
2018-06-08T20:13:00.508Z,64.20
2018-06-08T20:15:29.345Z,64.70
2018-06-08T20:17:57.883Z,65.30
2018-06-08T20:20:26.402Z,66.00
2018-06-08T20:22:54.927Z,66.30
2018-06-08T20:25:23.428Z,66.80
2018-06-08T20:27:51.956Z,67.50
2018-06-08T20:30:20.465Z,68.40
2018-06-08T20:32:49.030Z,69.10
2018-06-08T20:35:17.652Z,70.00
2018-06-08T20:37:46.175Z,70.70
2018-06-08T20:40:14.655Z,71.80
2018-06-08T20:42:43.127Z,72.60
2018-06-08T20:45:11.620Z,73.10
2018-06-08T20:47:40.121Z,73.50
2018-06-08T20:50:08.648Z,75.00
2018-06-08T20:52:37.131Z,75.20
2018-06-08T20:55:05.668Z,75.90
2018-06-08T20:57:34.139Z,76.60
2018-06-08T21:00:02.652Z,77.30
2018-06-08T21:02:31.190Z,78.00
2018-06-08T21:04:59.644Z,78.50
2018-06-08T21:07:28.148Z,78.90
2018-06-08T21:09:56.612Z,79.20
2018-06-08T21:12:25.135Z,80.20
2018-06-08T21:14:53.665Z,79.80
2018-06-08T21:17:22.255Z,80.20
2018-06-08T21:19:51.184Z,80.70
2018-06-08T21:22:19.701Z,81.30
2018-06-08T21:24:48.234Z,81.80
2018-06-08T21:27:16.712Z,82.50
2018-06-08T21:29:45.204Z,83.30
2018-06-08T21:32:13.781Z,84.20
2018-06-08T21:34:42.317Z,85.00
2018-06-08T21:37:10.816Z,86.00
2018-06-08T21:39:39.365Z,86.80
2018-06-08T21:42:07.843Z,87.30
2018-06-08T21:44:36.319Z,88.00
2018-06-08T21:56:57.532Z,90.00
2018-06-08T21:59:26.088Z,90.20
2018-06-08T22:04:22.850Z,90.70
2018-06-08T22:06:51.361Z,90.70
2018-06-08T22:09:19.922Z,90.80
2018-06-08T22:11:48.456Z,91.10
2018-06-08T22:14:16.965Z,91.40
2018-06-08T22:16:45.508Z,91.60
2018-06-08T22:19:14.029Z,91.70
2018-06-08T22:29:07.003Z,92.20
2018-06-08T22:31:35.500Z,92.20
2018-06-08T22:34:04.057Z,92.50
2018-06-08T22:36:32.526Z,92.60
2018-06-08T22:39:01.025Z,92.70
2018-06-08T22:41:29.496Z,92.80
2018-06-08T22:43:58.000Z,93.00
2018-06-08T22:46:26.515Z,93.20
2018-06-08T22:48:54.975Z,93.30
2018-06-08T22:51:23.471Z,93.40
2018-06-08T22:56:20.124Z,93.60
2018-06-08T23:01:16.760Z,93.70
2018-06-08T23:03:45.263Z,93.80
2018-06-08T23:08:41.900Z,93.90
2018-06-08T23:11:10.387Z,93.90
2018-06-08T23:13:38.852Z,94.10
2018-06-08T23:16:07.336Z,94.10
2018-06-08T23:18:35.808Z,94.30
2018-06-08T23:21:04.292Z,94.50
2018-06-08T23:23:32.745Z,94.90
2018-06-08T23:26:01.232Z,95.20
2018-06-08T23:28:29.688Z,95.40
2018-06-08T23:30:58.195Z,95.70
2018-06-08T23:33:26.652Z,95.90
2018-06-08T23:35:55.111Z,96.20
2018-06-08T23:40:51.727Z,96.40
2018-06-08T23:43:20.199Z,96.60
2018-06-08T23:45:48.709Z,96.70
2018-06-08T23:48:17.173Z,96.60
2018-06-08T23:50:45.628Z,96.60
2018-06-08T23:53:14.080Z,96.60
2018-06-08T23:58:10.884Z,96.50
